Time;durP1;ratioP1;P1;durP2;ratioP2;P2;SDS_P1;SDS_P2;PMS_P1;PMS_P2;Temp;Humidity;BMP_temperature;BMP_pressure;BME280_temperature;BME280_humidity;BME280_pressure;Samples;Min_cycle;Max_cycle;Signal;HPM_P1;HPM_P2
2023/07/18 00:00:14;;;;;;;2.60;1.30;;;;;;;;;;5016409;28;20547;-57
2023/07/18 00:02:42;;;;;;;1.50;1.40;;;;;;;;;;5016275;28;20454;-56
2023/07/18 00:05:12;;;;;;;2.30;1.70;;;;;;;;;;5016189;28;20458;-57
2023/07/18 00:07:39;;;;;;;2.07;1.63;;;;;;;;;;5015904;28;21094;-57
2023/07/18 00:10:06;;;;;;;1.70;1.40;;;;;;;;;;5015906;28;20449;-57
2023/07/18 00:12:33;;;;;;;1.87;1.47;;;;;;;;;;5016112;28;20461;-57
2023/07/18 00:15:03;;;;;;;2.90;1.70;;;;;;;;;;5016021;28;20511;-57
2023/07/18 00:17:30;;;;;;;2.10;1.90;;;;;;;;;;5015933;28;20820;-58
2023/07/18 00:19:57;;;;;;;2.07;1.97;;;;;;;;;;5015924;28;20450;-57
2023/07/18 00:22:25;;;;;;;2.13;1.93;;;;;;;;;;5015221;28;20543;-56
2023/07/18 00:24:52;;;;;;;2.47;1.53;;;;;;;;;;5015682;28;20449;-57
2023/07/18 00:27:19;;;;;;;1.57;1.47;;;;;;;;;;5015808;28;20489;-57
2023/07/18 00:29:46;;;;;;;1.67;1.57;;;;;;;;;;5015803;28;20548;-56
2023/07/18 00:32:13;;;;;;;1.70;1.60;;;;;;;;;;5015997;28;20452;-56
2023/07/18 00:34:41;;;;;;;1.70;1.50;;;;;;;;;;5015562;28;20457;-56
2023/07/18 00:37:08;;;;;;;2.50;1.73;;;;;;;;;;5015418;28;20528;-57
2023/07/18 00:39:36;;;;;;;2.10;2.00;;;;;;;;;;5015330;28;20460;-56
2023/07/18 00:42:03;;;;;;;1.77;1.60;;;;;;;;;;5015512;28;20483;-56
2023/07/18 00:44:30;;;;;;;1.70;1.60;;;;;;;;;;5015262;28;20548;-55
2023/07/18 00:46:57;;;;;;;3.87;1.50;;;;;;;;;;5015302;28;20485;-57
2023/07/18 00:49:24;;;;;;;1.83;1.73;;;;;;;;;;5015259;28;20555;-56
2023/07/18 00:51:52;;;;;;;2.00;1.80;;;;;;;;;;5015121;28;21039;-57
2023/07/18 00:54:19;;;;;;;3.00;1.90;;;;;;;;;;5015278;28;20461;-57
2023/07/18 00:56:47;;;;;;;2.57;2.37;;;;;;;;;;5015017;28;20520;-56
2023/07/18 00:59:16;;;;;;;1.93;1.77;;;;;;;;;;5014980;28;20454;-57
2023/07/18 01:01:43;;;;;;;2.30;1.80;;;;;;;;;;5015051;28;20481;-57
2023/07/18 01:04:10;;;;;;;1.80;1.70;;;;;;;;;;5014996;28;20899;-57
2023/07/18 01:06:38;;;;;;;2.93;1.83;;;;;;;;;;5014785;28;20479;-56
2023/07/18 01:09:06;;;;;;;4.10;2.40;;;;;;;;;;5015000;28;20453;-57
2023/07/18 01:11:34;;;;;;;2.30;1.93;;;;;;;;;;5014922;28;20457;-57
2023/07/18 01:14:03;;;;;;;1.60;1.50;;;;;;;;;;5014873;28;20455;-56
2023/07/18 01:16:30;;;;;;;3.90;1.87;;;;;;;;;;5014817;28;20465;-55
2023/07/18 01:18:57;;;;;;;2.30;1.93;;;;;;;;;;5014587;28;20551;-57
2023/07/18 01:21:25;;;;;;;2.00;1.80;;;;;;;;;;5014841;28;20849;-57
2023/07/18 01:23:52;;;;;;;2.00;1.80;;;;;;;;;;5014706;28;20816;-57
2023/07/18 01:26:19;;;;;;;1.90;1.77;;;;;;;;;;5014595;28;20453;-57
2023/07/18 01:28:46;;;;;;;2.00;1.90;;;;;;;;;;5014618;28;20889;-57
2023/07/18 01:31:13;;;;;;;2.07;1.97;;;;;;;;;;5014496;28;20464;-57
2023/07/18 01:33:42;;;;;;;2.50;2.30;;;;;;;;;;5013675;28;20456;-57
2023/07/18 01:36:09;;;;;;;2.00;1.90;;;;;;;;;;5014595;28;20456;-58
2023/07/18 01:38:37;;;;;;;3.33;2.37;;;;;;;;;;5014412;28;20463;-57
2023/07/18 01:41:07;;;;;;;2.27;2.13;;;;;;;;;;5014425;28;20548;-58
2023/07/18 01:43:35;;;;;;;2.80;2.60;;;;;;;;;;5014311;28;20456;-58
2023/07/18 01:46:02;;;;;;;2.40;2.20;;;;;;;;;;5014116;28;20805;-58
2023/07/18 01:48:29;;;;;;;2.60;1.90;;;;;;;;;;5014241;28;20488;-58
2023/07/18 01:50:56;;;;;;;2.03;1.93;;;;;;;;;;5014276;28;20593;-58
2023/07/18 01:53:26;;;;;;;2.53;1.90;;;;;;;;;;5014189;28;20542;-58
2023/07/18 01:55:54;;;;;;;3.37;1.90;;;;;;;;;;5013936;28;20460;-59
2023/07/18 01:58:21;;;;;;;2.43;2.23;;;;;;;;;;5014027;28;20479;-59
2023/07/18 02:00:48;;;;;;;2.33;2.13;;;;;;;;;;5013918;28;20493;-57
2023/07/18 02:03:15;;;;;;;2.33;2.13;;;;;;;;;;5014127;28;20460;-58
2023/07/18 02:05:43;;;;;;;3.20;1.97;;;;;;;;;;5013990;28;20877;-58
2023/07/18 02:08:10;;;;;;;2.17;1.93;;;;;;;;;;5013992;28;20492;-57
2023/07/18 02:10:36;;;;;;;2.67;2.47;;;;;;;;;;5014023;28;20490;-57
2023/07/18 02:13:05;;;;;;;3.27;2.90;;;;;;;;;;5013768;28;21008;-57
2023/07/18 02:15:32;;;;;;;2.40;2.20;;;;;;;;;;5013919;28;21039;-57
2023/07/18 02:17:59;;;;;;;2.70;2.50;;;;;;;;;;5013987;28;20451;-59
2023/07/18 02:20:26;;;;;;;2.57;2.37;;;;;;;;;;5013720;28;20452;-58
2023/07/18 02:22:52;;;;;;;2.93;2.50;;;;;;;;;;5013658;28;20457;-58
2023/07/18 02:25:19;;;;;;;2.50;2.30;;;;;;;;;;5013577;28;20489;-57
2023/07/18 02:27:47;;;;;;;2.10;1.90;;;;;;;;;;5013385;28;20491;-57
2023/07/18 02:30:16;;;;;;;2.93;2.70;;;;;;;;;;5013648;28;20450;-57
2023/07/18 02:32:44;;;;;;;3.30;2.53;;;;;;;;;;5013590;28;20535;-57
2023/07/18 02:35:15;;;;;;;5.20;1.93;;;;;;;;;;5013480;28;20458;-58
2023/07/18 02:37:41;;;;;;;2.43;2.23;;;;;;;;;;5013437;28;20894;-56
2023/07/18 02:40:09;;;;;;;2.40;2.20;;;;;;;;;;5013241;28;20547;-58
2023/07/18 02:42:36;;;;;;;7.23;3.03;;;;;;;;;;5013482;28;20453;-58
2023/07/18 02:45:03;;;;;;;2.37;1.97;;;;;;;;;;5013197;28;20483;-57
2023/07/18 02:47:31;;;;;;;2.90;1.90;;;;;;;;;;5013265;28;20559;-57
2023/07/18 02:49:58;;;;;;;2.40;2.20;;;;;;;;;;5013325;28;20605;-56
2023/07/18 02:52:25;;;;;;;3.07;2.77;;;;;;;;;;5013218;28;20453;-57
2023/07/18 02:54:53;;;;;;;2.73;2.03;;;;;;;;;;5013074;28;20461;-56
2023/07/18 02:57:20;;;;;;;2.60;2.20;;;;;;;;;;5013007;28;20487;-57
2023/07/18 02:59:47;;;;;;;2.80;2.60;;;;;;;;;;5013238;28;20551;-58
2023/07/18 03:02:14;;;;;;;2.90;2.10;;;;;;;;;;5013208;28;20531;-57
2023/07/18 03:04:43;;;;;;;2.77;2.57;;;;;;;;;;5013100;28;20502;-58
2023/07/18 03:07:13;;;;;;;2.40;2.20;;;;;;;;;;5012898;28;21054;-58
2023/07/18 03:09:41;;;;;;;2.93;2.70;;;;;;;;;;5013248;28;20548;-57
2023/07/18 03:12:10;;;;;;;2.60;2.30;;;;;;;;;;5013166;28;20456;-57
2023/07/18 03:14:37;;;;;;;2.23;2.00;;;;;;;;;;5013134;28;20903;-57
2023/07/18 03:17:04;;;;;;;2.73;2.50;;;;;;;;;;5012991;28;20452;-57
2023/07/18 03:19:31;;;;;;;4.67;2.30;;;;;;;;;;5012941;28;20528;-57
2023/07/18 03:21:59;;;;;;;4.17;3.27;;;;;;;;;;5012847;28;20452;-58
2023/07/18 03:24:26;;;;;;;3.70;2.50;;;;;;;;;;5012992;28;20456;-56
2023/07/18 03:26:53;;;;;;;2.37;2.17;;;;;;;;;;5012836;28;20453;-57
2023/07/18 03:29:20;;;;;;;2.60;2.40;;;;;;;;;;5012899;28;20531;-57
2023/07/18 03:31:47;;;;;;;2.90;2.63;;;;;;;;;;5012841;28;20451;-57
2023/07/18 03:34:14;;;;;;;3.00;2.40;;;;;;;;;;5012762;28;20542;-56
2023/07/18 03:36:41;;;;;;;2.80;2.60;;;;;;;;;;5013005;28;20463;-57
2023/07/18 03:39:10;;;;;;;2.37;2.20;;;;;;;;;;5012871;28;20894;-57
2023/07/18 03:41:38;;;;;;;2.63;2.43;;;;;;;;;;5012898;28;20456;-57
2023/07/18 03:44:06;;;;;;;3.60;2.83;;;;;;;;;;5012798;28;20459;-57
2023/07/18 03:46:33;;;;;;;2.90;2.50;;;;;;;;;;5012700;28;20455;-57
2023/07/18 03:49:00;;;;;;;4.73;2.40;;;;;;;;;;5012461;28;20497;-57
2023/07/18 03:51:28;;;;;;;2.80;2.60;;;;;;;;;;5012820;28;20431;-57
2023/07/18 03:53:55;;;;;;;7.00;3.70;;;;;;;;;;5012791;28;20430;-58
2023/07/18 03:56:23;;;;;;;4.07;2.60;;;;;;;;;;5013022;28;20476;-57
2023/07/18 03:58:51;;;;;;;4.53;2.57;;;;;;;;;;5016251;28;20451;-56
2023/07/18 04:01:18;;;;;;;2.97;2.63;;;;;;;;;;5016146;28;20459;-57
2023/07/18 04:03:45;;;;;;;4.30;2.70;;;;;;;;;;5016013;28;20476;-58
2023/07/18 04:06:12;;;;;;;2.80;2.60;;;;;;;;;;5016092;28;20930;-57
2023/07/18 04:08:40;;;;;;;3.00;2.57;;;;;;;;;;5016041;28;20484;-57
2023/07/18 04:11:07;;;;;;;3.10;2.80;;;;;;;;;;5015996;28;20572;-55
2023/07/18 04:13:35;;;;;;;2.50;2.30;;;;;;;;;;5015990;28;20815;-55
2023/07/18 04:16:02;;;;;;;2.70;2.50;;;;;;;;;;5015764;28;20948;-56
2023/07/18 04:18:29;;;;;;;3.13;2.93;;;;;;;;;;5016064;28;20506;-54
2023/07/18 04:21:01;;;;;;;2.90;2.60;;;;;;;;;;5015697;28;20936;-56
2023/07/18 04:23:28;;;;;;;3.10;2.80;;;;;;;;;;5015863;28;20464;-56
2023/07/18 04:25:55;;;;;;;3.20;2.63;;;;;;;;;;5015752;28;20456;-55
2023/07/18 04:28:23;;;;;;;11.27;4.00;;;;;;;;;;5016022;28;21001;-56
2023/07/18 04:30:51;;;;;;;3.67;2.63;;;;;;;;;;5015870;28;20463;-57
2023/07/18 04:33:18;;;;;;;2.73;2.53;;;;;;;;;;5015706;28;20509;-56
2023/07/18 04:35:45;;;;;;;3.30;3.07;;;;;;;;;;5015639;28;21030;-57
2023/07/18 04:38:12;;;;;;;2.97;2.67;;;;;;;;;;5015526;28;20800;-54
2023/07/18 04:40:39;;;;;;;2.83;2.63;;;;;;;;;;5015496;28;20484;-55
2023/07/18 04:43:06;;;;;;;5.20;2.80;;;;;;;;;;5015226;28;20539;-57
2023/07/18 04:45:33;;;;;;;2.20;2.10;;;;;;;;;;5015551;28;20549;-56
2023/07/18 04:48:03;;;;;;;2.80;2.60;;;;;;;;;;5015335;28;20570;-56
2023/07/18 04:50:30;;;;;;;3.60;3.13;;;;;;;;;;5015383;28;20864;-56
2023/07/18 04:52:57;;;;;;;3.00;2.70;;;;;;;;;;5015684;28;20456;-57
2023/07/18 04:55:25;;;;;;;8.50;3.60;;;;;;;;;;5015092;28;20522;-55
2023/07/18 04:57:52;;;;;;;4.53;3.33;;;;;;;;;;5014837;28;20475;-55
2023/07/18 05:00:19;;;;;;;3.90;3.07;;;;;;;;;;5015210;28;20535;-56
2023/07/18 05:02:46;;;;;;;5.53;3.10;;;;;;;;;;5015084;28;21000;-57
2023/07/18 05:05:14;;;;;;;3.70;3.40;;;;;;;;;;5015007;28;20534;-56
2023/07/18 05:07:44;;;;;;;3.20;3.00;;;;;;;;;;5014710;28;20519;-56
2023/07/18 05:10:11;;;;;;;5.27;3.13;;;;;;;;;;5014756;28;20452;-56
2023/07/18 05:12:38;;;;;;;3.23;2.60;;;;;;;;;;5014970;28;20530;-56
2023/07/18 05:15:05;;;;;;;4.70;3.30;;;;;;;;;;5014656;28;21022;-57
2023/07/18 05:17:32;;;;;;;3.20;3.00;;;;;;;;;;5014802;28;20458;-54
2023/07/18 05:20:00;;;;;;;2.97;2.70;;;;;;;;;;5014699;28;20450;-54
2023/07/18 05:22:28;;;;;;;4.07;3.60;;;;;;;;;;5014590;28;20544;-56
2023/07/18 05:24:56;;;;;;;4.07;2.60;;;;;;;;;;5014950;28;20485;-56
2023/07/18 05:27:23;;;;;;;7.00;2.80;;;;;;;;;;5014646;28;20430;-57
2023/07/18 05:29:50;;;;;;;7.47;2.97;;;;;;;;;;5014490;28;20499;-57
2023/07/18 05:32:17;;;;;;;36.27;5.30;;;;;;;;;;5014303;28;20461;-56
2023/07/18 05:34:44;;;;;;;4.10;2.67;;;;;;;;;;5014281;28;20977;-56
2023/07/18 05:37:11;;;;;;;2.80;2.60;;;;;;;;;;5014234;28;20452;-56
2023/07/18 05:39:39;;;;;;;3.03;2.50;;;;;;;;;;5014552;28;20452;-57
2023/07/18 05:42:06;;;;;;;3.37;3.07;;;;;;;;;;5014207;28;20456;-56
2023/07/18 05:44:33;;;;;;;5.30;3.27;;;;;;;;;;5014278;28;20459;-56
2023/07/18 05:47:00;;;;;;;3.57;3.10;;;;;;;;;;5014177;28;20816;-58
2023/07/18 05:49:27;;;;;;;3.90;2.70;;;;;;;;;;5013905;28;20485;-57
2023/07/18 05:51:54;;;;;;;3.10;2.90;;;;;;;;;;5013946;28;20599;-57
2023/07/18 05:54:22;;;;;;;2.90;2.70;;;;;;;;;;5014155;28;20457;-56
2023/07/18 05:56:50;;;;;;;5.77;2.63;;;;;;;;;;5014104;28;20485;-56
2023/07/18 05:59:17;;;;;;;3.87;2.80;;;;;;;;;;5014072;28;20499;-56
2023/07/18 06:01:45;;;;;;;3.33;2.47;;;;;;;;;;5013861;28;20444;-57
2023/07/18 06:04:15;;;;;;;2.50;2.30;;;;;;;;;;5013773;28;20858;-58
2023/07/18 06:06:43;;;;;;;7.43;2.73;;;;;;;;;;5014104;28;20565;-56
2023/07/18 06:09:10;;;;;;;3.93;2.67;;;;;;;;;;5013845;28;20493;-56
2023/07/18 06:11:38;;;;;;;2.77;2.57;;;;;;;;;;5013793;28;20461;-57
2023/07/18 06:14:06;;;;;;;2.83;2.53;;;;;;;;;;5013597;28;20459;-57
2023/07/18 06:16:33;;;;;;;3.60;2.53;;;;;;;;;;5013557;28;20544;-56
2023/07/18 06:19:00;;;;;;;4.70;2.97;;;;;;;;;;5012988;28;20463;-56
2023/07/18 06:21:27;;;;;;;2.47;2.30;;;;;;;;;;5013729;28;20881;-55
2023/07/18 06:23:54;;;;;;;2.70;2.50;;;;;;;;;;5013644;28;20455;-57
2023/07/18 06:26:22;;;;;;;4.87;2.70;;;;;;;;;;5013463;28;20866;-55
2023/07/18 06:28:49;;;;;;;3.40;2.30;;;;;;;;;;5013443;28;20532;-56
2023/07/18 06:31:17;;;;;;;2.43;2.23;;;;;;;;;;5013336;28;20453;-58
2023/07/18 06:33:45;;;;;;;2.27;2.07;;;;;;;;;;5013308;28;20531;-56
2023/07/18 06:36:12;;;;;;;2.60;2.00;;;;;;;;;;5013511;28;20918;-56
2023/07/18 06:38:39;;;;;;;2.17;2.07;;;;;;;;;;5013332;28;20468;-55
2023/07/18 06:41:06;;;;;;;3.40;2.30;;;;;;;;;;5013390;28;20497;-58
2023/07/18 06:43:33;;;;;;;4.37;2.20;;;;;;;;;;5013295;28;20454;-57
2023/07/18 06:46:00;;;;;;;2.60;2.37;;;;;;;;;;5013160;28;20827;-56
2023/07/18 06:48:28;;;;;;;3.40;2.13;;;;;;;;;;5017178;28;20826;-57
2023/07/18 06:50:59;;;;;;;4.80;2.80;;;;;;;;;;5021532;28;20457;-57
2023/07/18 06:53:26;;;;;;;2.33;2.13;;;;;;;;;;5015711;28;20446;-58
2023/07/18 06:55:54;;;;;;;4.47;2.20;;;;;;;;;;5012990;28;20546;-58
2023/07/18 06:58:21;;;;;;;2.47;1.87;;;;;;;;;;5012990;28;20813;-59
2023/07/18 07:00:50;;;;;;;3.83;2.30;;;;;;;;;;5013264;28;20504;-58
2023/07/18 07:03:17;;;;;;;3.10;2.80;;;;;;;;;;5012935;28;20534;-58
2023/07/18 07:05:45;;;;;;;3.10;2.60;;;;;;;;;;5013108;28;20462;-58
2023/07/18 07:08:12;;;;;;;2.37;2.13;;;;;;;;;;5020042;28;20454;-59
2023/07/18 07:10:40;;;;;;;5.67;2.50;;;;;;;;;;5021170;28;20485;-57
2023/07/18 07:13:07;;;;;;;2.70;2.50;;;;;;;;;;5022505;28;20532;-59
2023/07/18 07:15:34;;;;;;;3.97;2.83;;;;;;;;;;5022878;28;20457;-59
2023/07/18 07:18:01;;;;;;;4.00;2.83;;;;;;;;;;5032666;28;20457;-59
2023/07/18 07:20:28;;;;;;;10.20;2.57;;;;;;;;;;5025437;28;20990;-58
2023/07/18 07:22:57;;;;;;;3.50;3.10;;;;;;;;;;5012778;28;20457;-59
2023/07/18 07:25:25;;;;;;;2.80;2.37;;;;;;;;;;5013058;28;20561;-59
2023/07/18 07:27:52;;;;;;;2.57;2.10;;;;;;;;;;5012949;28;20611;-58
2023/07/18 07:30:19;;;;;;;3.53;2.60;;;;;;;;;;5012759;28;20482;-58
2023/07/18 07:32:47;;;;;;;2.60;2.40;;;;;;;;;;5015552;28;20457;-58
2023/07/18 07:35:16;;;;;;;3.07;2.13;;;;;;;;;;5021982;28;20989;-60
2023/07/18 07:37:43;;;;;;;2.33;2.13;;;;;;;;;;5016427;28;20492;-58
2023/07/18 07:40:11;;;;;;;3.33;2.10;;;;;;;;;;5016180;28;20476;-58
2023/07/18 07:42:39;;;;;;;5.77;3.07;;;;;;;;;;5016384;28;20788;-58
2023/07/18 07:45:07;;;;;;;4.57;2.20;;;;;;;;;;5024340;28;20548;-59
2023/07/18 07:47:34;;;;;;;2.93;2.37;;;;;;;;;;5026106;28;20489;-58
2023/07/18 07:50:01;;;;;;;2.17;1.97;;;;;;;;;;5027009;28;21002;-57
2023/07/18 07:52:28;;;;;;;4.60;2.40;;;;;;;;;;5021271;28;21076;-58
2023/07/18 07:54:56;;;;;;;2.83;2.40;;;;;;;;;;5016382;28;20458;-58
2023/07/18 07:57:24;;;;;;;3.30;3.00;;;;;;;;;;5015785;28;20473;-59
2023/07/18 07:59:52;;;;;;;3.37;1.93;;;;;;;;;;5016094;28;20542;-59
2023/07/18 08:02:19;;;;;;;5.23;2.50;;;;;;;;;;5016121;28;20454;-58
2023/07/18 08:04:46;;;;;;;3.67;2.43;;;;;;;;;;5015971;28;20883;-58
2023/07/18 08:07:13;;;;;;;2.70;2.50;;;;;;;;;;5015743;28;20992;-58
2023/07/18 08:09:40;;;;;;;3.00;2.73;;;;;;;;;;5016569;28;20660;-59
2023/07/18 08:12:08;;;;;;;4.17;2.00;;;;;;;;;;5036045;28;20450;-58
2023/07/18 08:14:37;;;;;;;6.30;2.30;;;;;;;;;;5035473;28;20454;-58
2023/07/18 08:17:04;;;;;;;4.30;2.23;;;;;;;;;;5035592;28;20810;-59
2023/07/18 08:19:32;;;;;;;3.37;2.23;;;;;;;;;;5035425;28;20449;-56
2023/07/18 08:21:59;;;;;;;2.53;2.00;;;;;;;;;;5035219;28;20567;-57
2023/07/18 08:24:26;;;;;;;3.50;2.20;;;;;;;;;;5035525;28;20809;-58
2023/07/18 08:26:53;;;;;;;3.53;2.00;;;;;;;;;;5035289;28;20886;-58
2023/07/18 08:29:20;;;;;;;5.40;2.40;;;;;;;;;;5035179;28;20481;-59
2023/07/18 08:31:49;;;;;;;6.30;2.20;;;;;;;;;;5035155;28;20507;-51
2023/07/18 08:34:17;;;;;;;3.03;2.20;;;;;;;;;;5034979;28;20450;-52
2023/07/18 08:36:46;;;;;;;3.47;2.47;;;;;;;;;;5035317;28;20449;-57
2023/07/18 08:39:13;;;;;;;3.50;2.47;;;;;;;;;;5035151;28;20458;-58
2023/07/18 08:41:41;;;;;;;2.50;2.30;;;;;;;;;;5029510;28;20450;-58
2023/07/18 08:44:08;;;;;;;3.40;2.27;;;;;;;;;;5027119;28;20489;-58
2023/07/18 08:46:35;;;;;;;3.93;2.17;;;;;;;;;;5023154;28;20447;-57
2023/07/18 08:49:04;;;;;;;2.40;1.70;;;;;;;;;;5014939;28;20481;-57
2023/07/18 08:51:32;;;;;;;2.53;2.00;;;;;;;;;;5014800;28;20455;-57
2023/07/18 08:53:59;;;;;;;4.50;2.63;;;;;;;;;;5018729;28;20446;-56
2023/07/18 08:56:26;;;;;;;4.67;2.33;;;;;;;;;;5034473;28;20564;-58
2023/07/18 08:58:53;;;;;;;2.47;2.20;;;;;;;;;;5034640;28;20456;-56
2023/07/18 09:01:20;;;;;;;3.17;1.90;;;;;;;;;;5034353;28;20964;-58
2023/07/18 09:03:47;;;;;;;2.37;2.13;;;;;;;;;;5034509;28;20536;-58
2023/07/18 09:06:19;;;;;;;3.10;2.00;;;;;;;;;;5034720;28;20450;-57
2023/07/18 09:08:46;;;;;;;7.90;2.23;;;;;;;;;;5034499;28;20532;-56
2023/07/18 09:11:14;;;;;;;2.73;2.40;;;;;;;;;;5019210;28;20830;-52
2023/07/18 09:13:42;;;;;;;2.33;2.00;;;;;;;;;;5014499;28;20946;-57
2023/07/18 09:16:13;;;;;;;2.77;2.00;;;;;;;;;;5014476;28;20457;-56
2023/07/18 09:18:40;;;;;;;2.00;1.80;;;;;;;;;;5014444;28;20942;-55
2023/07/18 09:21:10;;;;;;;2.13;1.70;;;;;;;;;;5014420;28;20505;-58
2023/07/18 09:23:41;;;;;;;2.70;1.80;;;;;;;;;;5014584;28;20446;-59
2023/07/18 09:26:10;;;;;;;3.60;2.40;;;;;;;;;;5014444;28;20550;-59
2023/07/18 09:28:37;;;;;;;2.37;2.17;;;;;;;;;;5014422;28;20508;-59
2023/07/18 09:31:04;;;;;;;2.30;1.70;;;;;;;;;;5016853;28;21011;-54
2023/07/18 09:33:31;;;;;;;2.57;1.60;;;;;;;;;;5025090;28;20504;-57
2023/07/18 09:35:59;;;;;;;3.13;2.10;;;;;;;;;;5021871;28;20988;-58
2023/07/18 09:38:27;;;;;;;3.53;1.73;;;;;;;;;;5014079;28;20465;-57
2023/07/18 09:40:55;;;;;;;1.70;1.60;;;;;;;;;;5014075;28;20583;-54
2023/07/18 09:43:24;;;;;;;2.73;1.90;;;;;;;;;;5013999;28;20946;-57
2023/07/18 09:45:52;;;;;;;1.67;1.33;;;;;;;;;;5028589;28;20480;-55
2023/07/18 09:48:20;;;;;;;2.57;1.50;;;;;;;;;;5033946;28;20441;-56
2023/07/18 09:50:48;;;;;;;1.90;1.70;;;;;;;;;;5033697;28;20513;-58
2023/07/18 09:53:17;;;;;;;3.33;1.50;;;;;;;;;;5033731;28;20460;-55
2023/07/18 09:55:44;;;;;;;2.57;1.90;;;;;;;;;;5032643;28;20460;-55
2023/07/18 09:58:13;;;;;;;3.77;1.80;;;;;;;;;;5033501;28;20987;-53
2023/07/18 10:00:43;;;;;;;4.20;1.80;;;;;;;;;;5033642;28;20972;-58
2023/07/18 10:03:10;;;;;;;2.23;1.43;;;;;;;;;;5033507;28;20454;-58
2023/07/18 10:05:37;;;;;;;2.60;1.83;;;;;;;;;;5033633;28;20545;-57
2023/07/18 10:08:05;;;;;;;3.13;2.20;;;;;;;;;;5033308;28;20449;-58
2023/07/18 10:10:32;;;;;;;1.60;1.33;;;;;;;;;;5033499;28;20508;-58
2023/07/18 10:13:00;;;;;;;4.30;1.70;;;;;;;;;;5033476;28;20445;-59
2023/07/18 10:15:30;;;;;;;2.33;1.50;;;;;;;;;;5033521;28;20588;-58
2023/07/18 10:18:16;;;;;;;3.17;1.87;;;;;;;;;;5032519;28;20539;-57
2023/07/18 10:20:57;;;;;;;1.80;1.40;;;;;;;;;;5032949;28;20536;-58
2023/07/18 10:23:39;;;;;;;2.37;1.73;;;;;;;;;;5021548;28;20488;-55
2023/07/18 10:26:06;;;;;;;2.30;1.57;;;;;;;;;;5013045;28;20442;-56
2023/07/18 10:28:42;;;;;;;1.60;1.50;;;;;;;;;;5013110;28;20461;-54
2023/07/18 10:31:09;;;;;;;2.20;1.67;;;;;;;;;;5013219;28;20474;-57
2023/07/18 10:33:41;;;;;;;4.20;2.70;;;;;;;;;;5013594;28;20454;-58
2023/07/18 10:36:24;;;;;;;5.47;1.90;;;;;;;;;;5013500;28;20550;-56
2023/07/18 10:38:52;;;;;;;1.90;1.40;;;;;;;;;;5013351;28;20492;-58
2023/07/18 10:41:22;;;;;;;2.03;1.80;;;;;;;;;;5012902;28;20446;-58
2023/07/18 10:43:49;;;;;;;1.53;1.40;;;;;;;;;;5012860;28;20450;-56
2023/07/18 10:46:17;;;;;;;1.60;1.50;;;;;;;;;;5012837;28;20453;-56
2023/07/18 10:48:51;;;;;;;1.50;1.40;;;;;;;;;;5012770;28;20867;-53
2023/07/18 10:51:18;;;;;;;4.17;1.30;;;;;;;;;;5012476;28;20906;-53
2023/07/18 10:53:53;;;;;;;2.00;1.63;;;;;;;;;;5012574;28;20533;-58
2023/07/18 10:56:20;;;;;;;3.50;1.53;;;;;;;;;;5012474;28;20486;-57
2023/07/18 10:58:47;;;;;;;2.00;1.70;;;;;;;;;;5012700;28;20443;-53
2023/07/18 11:01:15;;;;;;;1.50;1.07;;;;;;;;;;5012875;28;20540;-55
2023/07/18 11:03:45;;;;;;;1.43;1.30;;;;;;;;;;5012359;28;20756;-55
2023/07/18 11:06:14;;;;;;;1.33;1.23;;;;;;;;;;5014370;28;20537;-51
2023/07/18 11:08:44;;;;;;;1.77;1.60;;;;;;;;;;5016383;28;20446;-53
2023/07/18 11:11:14;;;;;;;2.27;1.50;;;;;;;;;;5016706;28;20474;-57
2023/07/18 11:13:42;;;;;;;1.80;1.27;;;;;;;;;;5016530;28;20442;-52
2023/07/18 11:16:10;;;;;;;2.57;1.57;;;;;;;;;;5016899;28;20540;-57
2023/07/18 11:18:37;;;;;;;1.50;1.37;;;;;;;;;;5016842;28;20457;-58
2023/07/18 11:21:05;;;;;;;2.80;1.70;;;;;;;;;;5016822;28;20541;-59
2023/07/18 11:23:34;;;;;;;1.63;1.53;;;;;;;;;;5017051;28;20454;-59
2023/07/18 11:26:01;;;;;;;1.10;1.00;;;;;;;;;;5016773;28;20545;-58
2023/07/18 11:28:30;;;;;;;1.47;1.17;;;;;;;;;;5016825;28;20482;-58
2023/07/18 11:30:56;;;;;;;2.87;1.50;;;;;;;;;;5016346;28;20568;-58
2023/07/18 11:33:28;;;;;;;5.30;1.33;;;;;;;;;;5016349;28;20529;-57
2023/07/18 11:35:56;;;;;;;1.57;1.47;;;;;;;;;;5027085;28;20464;-59
2023/07/18 11:38:24;;;;;;;1.67;1.57;;;;;;;;;;5021928;28;21035;-58
2023/07/18 11:40:52;;;;;;;3.43;1.40;;;;;;;;;;5016909;28;20451;-54
2023/07/18 11:43:19;;;;;;;1.60;1.30;;;;;;;;;;5024143;28;20449;-56
2023/07/18 11:45:48;;;;;;;3.00;1.20;;;;;;;;;;5026883;28;20541;-55
2023/07/18 11:48:15;;;;;;;2.23;1.30;;;;;;;;;;5028583;28;20533;-57
2023/07/18 11:50:44;;;;;;;1.50;1.23;;;;;;;;;;5035874;28;20997;-57
2023/07/18 11:53:12;;;;;;;1.30;1.20;;;;;;;;;;5030085;28;20874;-58
2023/07/18 11:55:39;;;;;;;1.67;1.20;;;;;;;;;;5024415;28;20478;-56
2023/07/18 11:58:09;;;;;;;1.37;1.27;;;;;;;;;;5025819;28;20556;-54
2023/07/18 12:00:37;;;;;;;1.70;1.53;;;;;;;;;;5026399;28;20458;-56
2023/07/18 12:03:04;;;;;;;1.80;1.40;;;;;;;;;;5024961;28;20450;-51
2023/07/18 12:05:31;;;;;;;1.53;1.43;;;;;;;;;;5025364;28;20450;-59
2023/07/18 12:07:58;;;;;;;1.77;1.10;;;;;;;;;;5026527;28;20803;-58
2023/07/18 12:10:25;;;;;;;1.53;1.30;;;;;;;;;;5023758;28;20561;-59
2023/07/18 12:12:52;;;;;;;1.63;1.20;;;;;;;;;;5015951;28;20534;-59
2023/07/18 12:15:20;;;;;;;2.07;1.40;;;;;;;;;;5015743;28;20561;-57
2023/07/18 12:17:47;;;;;;;1.40;1.30;;;;;;;;;;5015135;28;20882;-56
2023/07/18 12:20:15;;;;;;;2.80;1.83;;;;;;;;;;5015818;28;20465;-55
2023/07/18 12:22:42;;;;;;;2.93;1.70;;;;;;;;;;5015609;28;20461;-56
2023/07/18 12:25:10;;;;;;;1.40;1.30;;;;;;;;;;5015535;28;20455;-58
2023/07/18 12:27:38;;;;;;;2.50;1.40;;;;;;;;;;5018440;28;20451;-57
2023/07/18 12:30:05;;;;;;;1.70;1.23;;;;;;;;;;5015604;28;20481;-56
2023/07/18 12:32:33;;;;;;;1.60;1.47;;;;;;;;;;5033799;28;20541;-56
2023/07/18 12:35:00;;;;;;;1.90;1.40;;;;;;;;;;5035392;28;20548;-58
2023/07/18 12:37:27;;;;;;;2.20;1.40;;;;;;;;;;5029763;28;20452;-56
2023/07/18 12:39:54;;;;;;;1.53;1.43;;;;;;;;;;5024713;28;21006;-56
2023/07/18 12:42:21;;;;;;;2.80;1.70;;;;;;;;;;5024098;28;20446;-56
2023/07/18 12:44:50;;;;;;;1.73;1.40;;;;;;;;;;5024507;28;20445;-56
2023/07/18 12:47:16;;;;;;;3.23;1.20;;;;;;;;;;5025776;28;20448;-57
2023/07/18 12:49:45;;;;;;;1.33;1.23;;;;;;;;;;5024709;28;20446;-57
2023/07/18 12:52:12;;;;;;;1.30;1.13;;;;;;;;;;5023103;28;20487;-56
2023/07/18 12:54:39;;;;;;;1.73;1.30;;;;;;;;;;5023535;28;20455;-57
2023/07/18 12:57:06;;;;;;;3.03;1.60;;;;;;;;;;5024866;28;20469;-54
2023/07/18 12:59:33;;;;;;;1.43;1.33;;;;;;;;;;5025216;28;20651;-57
2023/07/18 13:02:00;;;;;;;1.70;1.33;;;;;;;;;;5015477;28;20454;-56
2023/07/18 13:04:27;;;;;;;4.07;1.20;;;;;;;;;;5024678;28;20438;-57
2023/07/18 13:06:56;;;;;;;1.63;1.40;;;;;;;;;;5024137;28;20476;-56
2023/07/18 13:09:22;;;;;;;3.00;1.70;;;;;;;;;;5023376;28;20537;-57
2023/07/18 13:11:50;;;;;;;1.50;1.40;;;;;;;;;;5023438;28;20593;-56
2023/07/18 13:14:18;;;;;;;1.93;1.83;;;;;;;;;;5021720;28;20450;-55
2023/07/18 13:16:44;;;;;;;3.57;1.30;;;;;;;;;;5020217;28;20926;-57
2023/07/18 13:19:11;;;;;;;3.03;1.20;;;;;;;;;;5023847;28;20530;-57
2023/07/18 13:21:38;;;;;;;2.83;2.27;;;;;;;;;;5023177;28;20449;-57
2023/07/18 13:24:07;;;;;;;2.10;1.07;;;;;;;;;;5023000;28;20485;-57
2023/07/18 13:26:34;;;;;;;4.00;1.70;;;;;;;;;;5022811;28;20882;-57
2023/07/18 13:29:01;;;;;;;1.93;1.30;;;;;;;;;;5023828;28;20542;-56
2023/07/18 13:31:28;;;;;;;1.30;1.20;;;;;;;;;;5023442;28;20504;-57
2023/07/18 13:33:55;;;;;;;7.63;7.03;;;;;;;;;;5022096;28;20454;-57
2023/07/18 13:36:22;;;;;;;1.80;1.50;;;;;;;;;;5022920;28;21021;-56
2023/07/18 13:38:49;;;;;;;2.00;1.30;;;;;;;;;;5021912;28;20545;-57
2023/07/18 13:41:17;;;;;;;1.50;1.20;;;;;;;;;;5014969;28;20542;-58
2023/07/18 13:43:44;;;;;;;1.70;1.20;;;;;;;;;;5023416;28;20536;-57
2023/07/18 13:46:11;;;;;;;5.60;1.40;;;;;;;;;;5023396;28;20452;-56
2023/07/18 13:48:38;;;;;;;1.60;1.50;;;;;;;;;;5023950;28;20451;-56
2023/07/18 13:51:05;;;;;;;1.63;1.20;;;;;;;;;;5018604;28;20472;-51
2023/07/18 13:53:32;;;;;;;1.40;1.30;;;;;;;;;;5034232;28;20450;-53
2023/07/18 13:55:58;;;;;;;4.23;1.90;;;;;;;;;;5033354;28;20870;-57
2023/07/18 13:58:27;;;;;;;1.27;1.13;;;;;;;;;;5033810;28;20481;-56
2023/07/18 14:00:54;;;;;;;1.30;1.20;;;;;;;;;;5033430;28;20549;-57
2023/07/18 14:03:21;;;;;;;2.73;1.30;;;;;;;;;;5033490;28;20505;-58
2023/07/18 14:05:48;;;;;;;1.67;1.10;;;;;;;;;;5033636;28;20919;-57
2023/07/18 14:08:15;;;;;;;1.53;1.43;;;;;;;;;;5034023;28;20537;-57
2023/07/18 14:10:42;;;;;;;1.63;1.50;;;;;;;;;;5033520;28;20833;-57
2023/07/18 14:13:09;;;;;;;1.47;1.37;;;;;;;;;;5033629;28;20455;-57
2023/07/18 14:15:37;;;;;;;3.57;1.40;;;;;;;;;;5033245;28;20450;-56
2023/07/18 14:18:04;;;;;;;1.83;1.30;;;;;;;;;;5033269;28;20533;-57
2023/07/18 14:20:31;;;;;;;1.30;1.20;;;;;;;;;;5033575;28;20457;-56
2023/07/18 14:22:58;;;;;;;1.73;1.40;;;;;;;;;;5033545;28;20452;-55
2023/07/18 14:25:25;;;;;;;1.43;1.33;;;;;;;;;;5033279;28;20454;-56
2023/07/18 14:27:53;;;;;;;2.37;1.10;;;;;;;;;;5033305;28;20540;-57
2023/07/18 14:30:20;;;;;;;1.00;0.90;;;;;;;;;;5033250;28;20457;-56
2023/07/18 14:32:48;;;;;;;1.50;1.40;;;;;;;;;;5033136;28;20485;-57
2023/07/18 14:35:16;;;;;;;1.33;1.23;;;;;;;;;;5033271;28;20540;-56
2023/07/18 14:37:43;;;;;;;1.17;1.07;;;;;;;;;;5033146;28;20508;-57
2023/07/18 14:40:10;;;;;;;1.87;1.10;;;;;;;;;;5032763;28;20565;-56
2023/07/18 14:42:37;;;;;;;2.30;1.30;;;;;;;;;;5033062;28;20536;-57
2023/07/18 14:45:04;;;;;;;1.20;1.10;;;;;;;;;;5032819;28;20454;-56